Auburn, Nebraska
Current Conditions -  °F | °C
As of 10:15 AM on Saturday 22 Nov 2014 (Local Time) from KAFK Reporting Station
Haze Haze  
Wind Chill: 34°   Ceiling: 200
Heat Index: 41°   Visibility: 4mi
Dew Point: 41°   Wind: 14mph
Humidity: 99%   Direction: 200°SSW
Pressure: 29.87"   Gusts: NA
Location:  40.39°N, 95.84°W
Report Text: KAFK 221615Z AUTO 20012KT 4SM BR OVC002 05/05 A2987 RMK AO2 LTG DSNT SW T00510050
Loading
Personal Weather Stations






























Interactive Weather Map New forecast layout! Learn more

10-Day Weather Forecast

Advertisements
Track Severe Weather on mobile